sensor_id;sensor_type;location;lat;lon;timestamp;P1;durP1;ratioP1;P2;durP2;ratioP2
7045;SDS011;3564;53.326;10.356;2023-07-29T00:01:00;3.60;;;3.30;;
7045;SDS011;3564;53.326;10.356;2023-07-29T00:03:26;4.87;;;4.17;;
7045;SDS011;3564;53.326;10.356;2023-07-29T00:05:52;4.20;;;3.80;;
7045;SDS011;3564;53.326;10.356;2023-07-29T00:08:18;5.60;;;3.77;;
7045;SDS011;3564;53.326;10.356;2023-07-29T00:10:43;5.83;;;4.00;;
7045;SDS011;3564;53.326;10.356;2023-07-29T00:13:09;6.63;;;4.00;;
7045;SDS011;3564;53.326;10.356;2023-07-29T00:15:34;5.37;;;4.13;;
7045;SDS011;3564;53.326;10.356;2023-07-29T00:18:03;3.90;;;3.60;;
7045;SDS011;3564;53.326;10.356;2023-07-29T00:20:28;4.37;;;3.83;;
7045;SDS011;3564;53.326;10.356;2023-07-29T00:22:54;5.03;;;4.17;;
7045;SDS011;3564;53.326;10.356;2023-07-29T00:25:20;5.43;;;3.87;;
7045;SDS011;3564;53.326;10.356;2023-07-29T00:27:46;4.13;;;3.73;;
7045;SDS011;3564;53.326;10.356;2023-07-29T00:30:12;3.90;;;3.60;;
7045;SDS011;3564;53.326;10.356;2023-07-29T00:32:37;4.87;;;4.43;;
7045;SDS011;3564;53.326;10.356;2023-07-29T00:35:03;5.00;;;4.60;;
7045;SDS011;3564;53.326;10.356;2023-07-29T00:37:29;4.70;;;4.20;;
7045;SDS011;3564;53.326;10.356;2023-07-29T00:39:55;6.43;;;4.37;;
7045;SDS011;3564;53.326;10.356;2023-07-29T00:42:21;4.43;;;4.03;;
7045;SDS011;3564;53.326;10.356;2023-07-29T00:44:47;4.77;;;4.10;;
7045;SDS011;3564;53.326;10.356;2023-07-29T00:47:12;5.83;;;4.50;;
7045;SDS011;3564;53.326;10.356;2023-07-29T00:49:43;4.97;;;4.57;;
7045;SDS011;3564;53.326;10.356;2023-07-29T00:52:09;6.20;;;4.47;;
7045;SDS011;3564;53.326;10.356;2023-07-29T00:54:37;5.77;;;4.90;;
7045;SDS011;3564;53.326;10.356;2023-07-29T00:57:04;5.30;;;4.80;;
7045;SDS011;3564;53.326;10.356;2023-07-29T00:59:30;5.40;;;4.77;;
7045;SDS011;3564;53.326;10.356;2023-07-29T01:01:57;5.83;;;4.40;;
7045;SDS011;3564;53.326;10.356;2023-07-29T01:04:22;4.57;;;4.17;;
7045;SDS011;3564;53.326;10.356;2023-07-29T01:15:20;4.87;;;4.47;;
7045;SDS011;3564;53.326;10.356;2023-07-29T01:17:55;5.73;;;4.60;;
7045;SDS011;3564;53.326;10.356;2023-07-29T01:20:24;8.73;;;5.10;;
7045;SDS011;3564;53.326;10.356;2023-07-29T01:22:51;5.13;;;4.63;;
7045;SDS011;3564;53.326;10.356;2023-07-29T01:25:16;5.80;;;4.87;;
7045;SDS011;3564;53.326;10.356;2023-07-29T01:27:46;5.87;;;5.00;;
7045;SDS011;3564;53.326;10.356;2023-07-29T01:30:13;5.83;;;5.20;;
7045;SDS011;3564;53.326;10.356;2023-07-29T01:38:05;5.63;;;5.03;;
7045;SDS011;3564;53.326;10.356;2023-07-29T01:40:38;5.63;;;4.77;;
7045;SDS011;3564;53.326;10.356;2023-07-29T01:43:05;6.00;;;4.63;;
7045;SDS011;3564;53.326;10.356;2023-07-29T01:45:33;4.77;;;4.37;;
7045;SDS011;3564;53.326;10.356;2023-07-29T01:48:03;5.43;;;4.67;;
7045;SDS011;3564;53.326;10.356;2023-07-29T01:50:29;5.37;;;4.17;;
7045;SDS011;3564;53.326;10.356;2023-07-29T01:52:59;4.90;;;4.40;;
7045;SDS011;3564;53.326;10.356;2023-07-29T01:55:25;6.70;;;4.80;;
7045;SDS011;3564;53.326;10.356;2023-07-29T01:57:51;4.80;;;4.30;;
7045;SDS011;3564;53.326;10.356;2023-07-29T02:00:17;6.73;;;4.67;;
7045;SDS011;3564;53.326;10.356;2023-07-29T02:02:44;4.97;;;4.50;;
7045;SDS011;3564;53.326;10.356;2023-07-29T02:05:09;6.40;;;4.93;;
7045;SDS011;3564;53.326;10.356;2023-07-29T02:07:35;5.50;;;5.00;;
7045;SDS011;3564;53.326;10.356;2023-07-29T02:10:00;5.53;;;4.80;;
7045;SDS011;3564;53.326;10.356;2023-07-29T02:12:26;8.73;;;5.20;;
7045;SDS011;3564;53.326;10.356;2023-07-29T02:14:55;6.13;;;5.60;;
7045;SDS011;3564;53.326;10.356;2023-07-29T02:17:20;8.03;;;5.20;;
7045;SDS011;3564;53.326;10.356;2023-07-29T02:19:49;6.93;;;6.20;;
7045;SDS011;3564;53.326;10.356;2023-07-29T02:22:16;6.47;;;5.53;;
7045;SDS011;3564;53.326;10.356;2023-07-29T02:24:43;5.93;;;5.33;;
7045;SDS011;3564;53.326;10.356;2023-07-29T02:27:09;6.13;;;5.53;;
7045;SDS011;3564;53.326;10.356;2023-07-29T02:29:37;5.93;;;5.40;;
7045;SDS011;3564;53.326;10.356;2023-07-29T02:32:03;7.07;;;5.47;;
7045;SDS011;3564;53.326;10.356;2023-07-29T02:34:29;6.53;;;5.93;;
7045;SDS011;3564;53.326;10.356;2023-07-29T02:36:54;6.47;;;5.83;;
7045;SDS011;3564;53.326;10.356;2023-07-29T02:39:20;6.23;;;5.13;;
7045;SDS011;3564;53.326;10.356;2023-07-29T02:41:49;7.77;;;5.60;;
7045;SDS011;3564;53.326;10.356;2023-07-29T02:44:17;7.13;;;5.93;;
7045;SDS011;3564;53.326;10.356;2023-07-29T02:46:44;6.50;;;5.90;;
7045;SDS011;3564;53.326;10.356;2023-07-29T02:49:10;6.40;;;5.80;;
7045;SDS011;3564;53.326;10.356;2023-07-29T02:51:35;9.50;;;6.30;;
7045;SDS011;3564;53.326;10.356;2023-07-29T02:54:01;6.83;;;5.67;;
7045;SDS011;3564;53.326;10.356;2023-07-29T02:56:26;7.10;;;6.20;;
7045;SDS011;3564;53.326;10.356;2023-07-29T02:58:52;7.30;;;5.67;;
7045;SDS011;3564;53.326;10.356;2023-07-29T03:01:17;7.93;;;6.00;;
7045;SDS011;3564;53.326;10.356;2023-07-29T03:03:43;6.90;;;5.87;;
7045;SDS011;3564;53.326;10.356;2023-07-29T03:06:10;6.73;;;6.00;;
7045;SDS011;3564;53.326;10.356;2023-07-29T03:08:37;7.03;;;6.33;;
7045;SDS011;3564;53.326;10.356;2023-07-29T03:11:07;9.03;;;6.57;;
7045;SDS011;3564;53.326;10.356;2023-07-29T03:13:37;7.27;;;6.37;;
7045;SDS011;3564;53.326;10.356;2023-07-29T03:16:15;9.17;;;6.43;;
7045;SDS011;3564;53.326;10.356;2023-07-29T03:18:42;7.57;;;6.17;;
7045;SDS011;3564;53.326;10.356;2023-07-29T03:21:11;7.93;;;6.30;;
7045;SDS011;3564;53.326;10.356;2023-07-29T03:23:37;6.90;;;5.87;;
7045;SDS011;3564;53.326;10.356;2023-07-29T03:26:03;8.67;;;6.50;;
7045;SDS011;3564;53.326;10.356;2023-07-29T03:28:34;7.50;;;6.70;;
7045;SDS011;3564;53.326;10.356;2023-07-29T03:31:01;7.30;;;6.57;;
7045;SDS011;3564;53.326;10.356;2023-07-29T03:33:27;8.33;;;7.03;;
7045;SDS011;3564;53.326;10.356;2023-07-29T03:35:53;6.97;;;6.13;;
7045;SDS011;3564;53.326;10.356;2023-07-29T03:38:19;8.17;;;7.37;;
7045;SDS011;3564;53.326;10.356;2023-07-29T03:40:47;8.33;;;7.00;;
7045;SDS011;3564;53.326;10.356;2023-07-29T03:43:16;8.07;;;7.13;;
7045;SDS011;3564;53.326;10.356;2023-07-29T03:45:42;7.83;;;7.03;;
7045;SDS011;3564;53.326;10.356;2023-07-29T03:48:08;9.20;;;7.47;;
7045;SDS011;3564;53.326;10.356;2023-07-29T03:50:34;7.93;;;6.70;;
7045;SDS011;3564;53.326;10.356;2023-07-29T03:53:01;7.60;;;6.90;;
7045;SDS011;3564;53.326;10.356;2023-07-29T03:55:27;8.80;;;7.40;;
7045;SDS011;3564;53.326;10.356;2023-07-29T03:57:55;8.30;;;7.23;;
7045;SDS011;3564;53.326;10.356;2023-07-29T04:00:24;7.97;;;7.23;;
7045;SDS011;3564;53.326;10.356;2023-07-29T04:02:50;8.17;;;7.10;;
7045;SDS011;3564;53.326;10.356;2023-07-29T04:05:16;7.83;;;6.63;;
7045;SDS011;3564;53.326;10.356;2023-07-29T04:07:42;11.37;;;7.87;;
7045;SDS011;3564;53.326;10.356;2023-07-29T04:10:10;7.73;;;6.90;;
7045;SDS011;3564;53.326;10.356;2023-07-29T04:12:36;9.00;;;7.87;;
7045;SDS011;3564;53.326;10.356;2023-07-29T04:15:02;7.60;;;6.90;;
7045;SDS011;3564;53.326;10.356;2023-07-29T04:17:28;9.90;;;6.97;;
7045;SDS011;3564;53.326;10.356;2023-07-29T04:19:54;9.47;;;7.93;;
7045;SDS011;3564;53.326;10.356;2023-07-29T04:22:19;10.77;;;7.57;;
7045;SDS011;3564;53.326;10.356;2023-07-29T04:24:45;11.93;;;7.80;;
7045;SDS011;3564;53.326;10.356;2023-07-29T04:27:11;9.50;;;7.43;;
7045;SDS011;3564;53.326;10.356;2023-07-29T04:29:42;9.00;;;7.70;;
7045;SDS011;3564;53.326;10.356;2023-07-29T04:32:08;9.13;;;8.23;;
7045;SDS011;3564;53.326;10.356;2023-07-29T04:34:34;9.13;;;8.10;;
7045;SDS011;3564;53.326;10.356;2023-07-29T04:36:59;11.13;;;8.77;;
7045;SDS011;3564;53.326;10.356;2023-07-29T04:39:27;10.23;;;8.60;;
7045;SDS011;3564;53.326;10.356;2023-07-29T04:41:53;10.93;;;8.23;;
7045;SDS011;3564;53.326;10.356;2023-07-29T04:44:19;11.20;;;8.20;;
7045;SDS011;3564;53.326;10.356;2023-07-29T04:46:44;10.87;;;8.73;;
7045;SDS011;3564;53.326;10.356;2023-07-29T04:49:10;10.83;;;8.33;;
7045;SDS011;3564;53.326;10.356;2023-07-29T04:51:35;10.77;;;7.93;;
7045;SDS011;3564;53.326;10.356;2023-07-29T04:54:02;11.40;;;9.03;;
7045;SDS011;3564;53.326;10.356;2023-07-29T04:56:30;11.00;;;8.93;;
7045;SDS011;3564;53.326;10.356;2023-07-29T04:58:59;9.40;;;8.40;;
7045;SDS011;3564;53.326;10.356;2023-07-29T05:01:24;11.73;;;9.03;;
7045;SDS011;3564;53.326;10.356;2023-07-29T05:03:50;12.57;;;9.87;;
7045;SDS011;3564;53.326;10.356;2023-07-29T05:06:15;11.10;;;9.90;;
7045;SDS011;3564;53.326;10.356;2023-07-29T05:08:41;10.90;;;9.67;;
7045;SDS011;3564;53.326;10.356;2023-07-29T05:11:06;14.40;;;9.50;;
7045;SDS011;3564;53.326;10.356;2023-07-29T05:13:32;11.47;;;10.00;;
7045;SDS011;3564;53.326;10.356;2023-07-29T05:15:58;13.73;;;10.00;;
7045;SDS011;3564;53.326;10.356;2023-07-29T05:18:23;12.57;;;10.47;;
7045;SDS011;3564;53.326;10.356;2023-07-29T05:20:49;12.60;;;10.77;;
7045;SDS011;3564;53.326;10.356;2023-07-29T05:23:14;12.27;;;10.87;;
7045;SDS011;3564;53.326;10.356;2023-07-29T05:25:43;12.90;;;11.53;;
7045;SDS011;3564;53.326;10.356;2023-07-29T05:28:08;13.93;;;11.23;;
7045;SDS011;3564;53.326;10.356;2023-07-29T05:30:34;14.80;;;11.83;;
7045;SDS011;3564;53.326;10.356;2023-07-29T05:33:02;15.10;;;12.07;;
7045;SDS011;3564;53.326;10.356;2023-07-29T05:35:29;14.40;;;12.00;;
7045;SDS011;3564;53.326;10.356;2023-07-29T05:37:55;15.40;;;12.27;;
7045;SDS011;3564;53.326;10.356;2023-07-29T05:40:20;14.50;;;11.83;;
7045;SDS011;3564;53.326;10.356;2023-07-29T05:42:46;14.80;;;12.10;;
7045;SDS011;3564;53.326;10.356;2023-07-29T05:45:12;14.40;;;12.97;;
7045;SDS011;3564;53.326;10.356;2023-07-29T05:47:38;16.83;;;12.53;;
7045;SDS011;3564;53.326;10.356;2023-07-29T05:50:04;16.83;;;12.57;;
7045;SDS011;3564;53.326;10.356;2023-07-29T05:52:31;14.00;;;12.60;;
7045;SDS011;3564;53.326;10.356;2023-07-29T05:54:56;14.03;;;12.63;;
7045;SDS011;3564;53.326;10.356;2023-07-29T05:57:22;15.00;;;13.47;;
7045;SDS011;3564;53.326;10.356;2023-07-29T05:59:50;14.00;;;12.10;;
7045;SDS011;3564;53.326;10.356;2023-07-29T06:02:16;14.23;;;12.77;;
7045;SDS011;3564;53.326;10.356;2023-07-29T06:04:42;15.43;;;13.17;;
7045;SDS011;3564;53.326;10.356;2023-07-29T06:07:07;13.93;;;12.43;;
7045;SDS011;3564;53.326;10.356;2023-07-29T06:09:33;14.83;;;13.17;;
7045;SDS011;3564;53.326;10.356;2023-07-29T06:11:58;13.80;;;12.47;;
7045;SDS011;3564;53.326;10.356;2023-07-29T06:14:24;15.57;;;13.17;;
7045;SDS011;3564;53.326;10.356;2023-07-29T06:16:50;12.90;;;11.63;;
7045;SDS011;3564;53.326;10.356;2023-07-29T06:19:15;13.50;;;11.40;;
7045;SDS011;3564;53.326;10.356;2023-07-29T06:21:41;14.50;;;12.27;;
7045;SDS011;3564;53.326;10.356;2023-07-29T06:24:07;15.00;;;13.23;;
7045;SDS011;3564;53.326;10.356;2023-07-29T06:26:32;13.50;;;12.10;;
7045;SDS011;3564;53.326;10.356;2023-07-29T06:28:58;12.60;;;11.07;;
7045;SDS011;3564;53.326;10.356;2023-07-29T06:31:23;13.37;;;11.53;;
7045;SDS011;3564;53.326;10.356;2023-07-29T06:33:52;13.83;;;11.27;;
7045;SDS011;3564;53.326;10.356;2023-07-29T06:36:19;13.37;;;11.03;;
7045;SDS011;3564;53.326;10.356;2023-07-29T06:38:45;13.47;;;12.03;;
7045;SDS011;3564;53.326;10.356;2023-07-29T06:41:10;11.60;;;10.40;;
7045;SDS011;3564;53.326;10.356;2023-07-29T06:43:36;13.20;;;11.63;;
7045;SDS011;3564;53.326;10.356;2023-07-29T06:46:01;14.10;;;11.57;;
7045;SDS011;3564;53.326;10.356;2023-07-29T06:48:27;13.97;;;11.03;;
7045;SDS011;3564;53.326;10.356;2023-07-29T06:50:52;13.10;;;10.83;;
7045;SDS011;3564;53.326;10.356;2023-07-29T06:53:20;12.40;;;11.13;;
7045;SDS011;3564;53.326;10.356;2023-07-29T06:55:46;13.07;;;11.20;;
7045;SDS011;3564;53.326;10.356;2023-07-29T06:58:11;12.57;;;11.33;;
7045;SDS011;3564;53.326;10.356;2023-07-29T07:00:37;12.70;;;10.67;;
7045;SDS011;3564;53.326;10.356;2023-07-29T07:03:02;11.23;;;10.07;;
7045;SDS011;3564;53.326;10.356;2023-07-29T07:05:28;11.03;;;9.93;;
7045;SDS011;3564;53.326;10.356;2023-07-29T07:07:53;11.90;;;10.60;;
7045;SDS011;3564;53.326;10.356;2023-07-29T07:10:19;12.60;;;10.17;;
7045;SDS011;3564;53.326;10.356;2023-07-29T07:12:48;11.50;;;9.60;;
7045;SDS011;3564;53.326;10.356;2023-07-29T07:15:13;11.03;;;8.77;;
7045;SDS011;3564;53.326;10.356;2023-07-29T07:17:39;10.20;;;8.17;;
7045;SDS011;3564;53.326;10.356;2023-07-29T07:20:11;8.30;;;7.50;;
7045;SDS011;3564;53.326;10.356;2023-07-29T07:22:36;6.80;;;5.83;;
7045;SDS011;3564;53.326;10.356;2023-07-29T07:25:02;7.30;;;6.47;;
7045;SDS011;3564;53.326;10.356;2023-07-29T07:27:28;9.20;;;6.23;;
7045;SDS011;3564;53.326;10.356;2023-07-29T07:29:53;6.13;;;5.53;;
7045;SDS011;3564;53.326;10.356;2023-07-29T07:32:22;5.93;;;5.43;;
7045;SDS011;3564;53.326;10.356;2023-07-29T07:34:48;6.30;;;4.97;;
7045;SDS011;3564;53.326;10.356;2023-07-29T07:37:13;5.73;;;4.80;;
7045;SDS011;3564;53.326;10.356;2023-07-29T07:39:39;4.77;;;4.37;;
7045;SDS011;3564;53.326;10.356;2023-07-29T07:42:04;6.07;;;4.37;;
7045;SDS011;3564;53.326;10.356;2023-07-29T07:44:30;4.57;;;3.80;;
7045;SDS011;3564;53.326;10.356;2023-07-29T07:46:56;4.50;;;4.07;;
7045;SDS011;3564;53.326;10.356;2023-07-29T07:49:21;5.27;;;3.67;;
7045;SDS011;3564;53.326;10.356;2023-07-29T07:51:47;4.23;;;3.60;;
7045;SDS011;3564;53.326;10.356;2023-07-29T07:54:13;4.77;;;4.13;;
7045;SDS011;3564;53.326;10.356;2023-07-29T07:56:42;3.97;;;3.57;;
7045;SDS011;3564;53.326;10.356;2023-07-29T07:59:08;5.13;;;3.60;;
7045;SDS011;3564;53.326;10.356;2023-07-29T08:01:39;4.90;;;3.60;;
7045;SDS011;3564;53.326;10.356;2023-07-29T08:04:05;3.73;;;3.37;;
7045;SDS011;3564;53.326;10.356;2023-07-29T08:06:31;3.63;;;3.33;;
7045;SDS011;3564;53.326;10.356;2023-07-29T08:08:58;3.60;;;3.30;;
7045;SDS011;3564;53.326;10.356;2023-07-29T08:11:23;5.13;;;3.73;;
7045;SDS011;3564;53.326;10.356;2023-07-29T08:13:50;6.50;;;3.77;;
7045;SDS011;3564;53.326;10.356;2023-07-29T08:16:15;5.03;;;3.70;;
7045;SDS011;3564;53.326;10.356;2023-07-29T08:18:41;3.90;;;3.40;;
7045;SDS011;3564;53.326;10.356;2023-07-29T08:21:06;3.73;;;3.30;;
7045;SDS011;3564;53.326;10.356;2023-07-29T08:23:32;4.17;;;3.77;;
7045;SDS011;3564;53.326;10.356;2023-07-29T08:26:00;4.77;;;3.53;;
7045;SDS011;3564;53.326;10.356;2023-07-29T08:28:48;3.60;;;3.30;;
7045;SDS011;3564;53.326;10.356;2023-07-29T08:31:13;3.80;;;3.50;;
7045;SDS011;3564;53.326;10.356;2023-07-29T08:33:38;3.60;;;3.30;;
7045;SDS011;3564;53.326;10.356;2023-07-29T08:36:07;3.60;;;3.30;;
7045;SDS011;3564;53.326;10.356;2023-07-29T08:38:32;4.20;;;3.80;;
7045;SDS011;3564;53.326;10.356;2023-07-29T08:41:13;5.00;;;4.13;;
7045;SDS011;3564;53.326;10.356;2023-07-29T08:43:52;4.10;;;3.80;;
7045;SDS011;3564;53.326;10.356;2023-07-29T08:46:24;4.30;;;4.00;;
7045;SDS011;3564;53.326;10.356;2023-07-29T08:48:50;4.73;;;4.33;;
7045;SDS011;3564;53.326;10.356;2023-07-29T08:51:16;5.13;;;4.67;;
7045;SDS011;3564;53.326;10.356;2023-07-29T08:53:44;7.00;;;6.30;;
7045;SDS011;3564;53.326;10.356;2023-07-29T08:56:09;7.30;;;6.60;;
7045;SDS011;3564;53.326;10.356;2023-07-29T08:58:39;7.87;;;7.10;;
7045;SDS011;3564;53.326;10.356;2023-07-29T09:01:05;8.90;;;8.00;;
7045;SDS011;3564;53.326;10.356;2023-07-29T09:03:31;10.00;;;8.57;;
7045;SDS011;3564;53.326;10.356;2023-07-29T09:05:59;9.97;;;8.97;;
7045;SDS011;3564;53.326;10.356;2023-07-29T09:08:30;10.27;;;9.33;;
7045;SDS011;3564;53.326;10.356;2023-07-29T09:10:56;10.23;;;9.13;;
7045;SDS011;3564;53.326;10.356;2023-07-29T09:13:21;10.50;;;9.27;;
7045;SDS011;3564;53.326;10.356;2023-07-29T09:15:53;10.47;;;9.47;;
7045;SDS011;3564;53.326;10.356;2023-07-29T09:18:20;10.27;;;9.23;;
7045;SDS011;3564;53.326;10.356;2023-07-29T09:20:47;9.57;;;8.67;;
7045;SDS011;3564;53.326;10.356;2023-07-29T09:23:13;10.53;;;9.20;;
7045;SDS011;3564;53.326;10.356;2023-07-29T09:25:39;9.73;;;8.83;;
7045;SDS011;3564;53.326;10.356;2023-07-29T09:28:10;9.83;;;8.83;;
7045;SDS011;3564;53.326;10.356;2023-07-29T09:30:39;10.37;;;9.37;;
7045;SDS011;3564;53.326;10.356;2023-07-29T09:33:13;10.70;;;9.70;;
7045;SDS011;3564;53.326;10.356;2023-07-29T09:35:39;10.40;;;9.40;;
7045;SDS011;3564;53.326;10.356;2023-07-29T09:38:05;11.00;;;9.83;;
7045;SDS011;3564;53.326;10.356;2023-07-29T09:40:35;10.27;;;9.27;;
7045;SDS011;3564;53.326;10.356;2023-07-29T09:43:02;10.63;;;9.53;;
7045;SDS011;3564;53.326;10.356;2023-07-29T09:45:29;11.00;;;10.00;;
7045;SDS011;3564;53.326;10.356;2023-07-29T09:47:57;11.10;;;10.00;;
7045;SDS011;3564;53.326;10.356;2023-07-29T09:50:29;10.50;;;9.50;;
7045;SDS011;3564;53.326;10.356;2023-07-29T09:52:55;10.33;;;9.27;;
7045;SDS011;3564;53.326;10.356;2023-07-29T09:55:25;10.57;;;9.40;;
7045;SDS011;3564;53.326;10.356;2023-07-29T09:57:57;9.97;;;8.50;;
7045;SDS011;3564;53.326;10.356;2023-07-29T10:00:26;12.63;;;9.97;;
7045;SDS011;3564;53.326;10.356;2023-07-29T10:02:53;10.60;;;9.57;;
7045;SDS011;3564;53.326;10.356;2023-07-29T10:05:19;9.67;;;8.77;;
7045;SDS011;3564;53.326;10.356;2023-07-29T10:07:50;10.87;;;9.70;;
7045;SDS011;3564;53.326;10.356;2023-07-29T10:10:16;10.70;;;9.70;;
7045;SDS011;3564;53.326;10.356;2023-07-29T10:12:42;11.73;;;10.53;;
7045;SDS011;3564;53.326;10.356;2023-07-29T10:15:08;11.40;;;10.00;;
7045;SDS011;3564;53.326;10.356;2023-07-29T10:17:35;10.73;;;9.77;;
7045;SDS011;3564;53.326;10.356;2023-07-29T10:20:05;10.80;;;9.67;;
7045;SDS011;3564;53.326;10.356;2023-07-29T10:22:38;10.23;;;9.23;;
7045;SDS011;3564;53.326;10.356;2023-07-29T10:25:29;11.93;;;9.37;;
7045;SDS011;3564;53.326;10.356;2023-07-29T10:28:07;9.40;;;8.53;;
7045;SDS011;3564;53.326;10.356;2023-07-29T10:30:38;9.73;;;8.83;;
7045;SDS011;3564;53.326;10.356;2023-07-29T10:33:05;10.47;;;9.07;;
7045;SDS011;3564;53.326;10.356;2023-07-29T10:35:37;10.23;;;9.13;;
7045;SDS011;3564;53.326;10.356;2023-07-29T10:38:03;8.60;;;7.80;;
7045;SDS011;3564;53.326;10.356;2023-07-29T10:40:43;8.60;;;7.70;;
7045;SDS011;3564;53.326;10.356;2023-07-29T10:43:18;7.80;;;6.97;;
7045;SDS011;3564;53.326;10.356;2023-07-29T10:45:48;8.83;;;8.03;;
7045;SDS011;3564;53.326;10.356;2023-07-29T10:54:13;6.60;;;6.00;;
7045;SDS011;3564;53.326;10.356;2023-07-29T10:56:40;6.83;;;5.73;;
7045;SDS011;3564;53.326;10.356;2023-07-29T11:01:45;6.30;;;5.70;;
7045;SDS011;3564;53.326;10.356;2023-07-29T11:04:31;6.03;;;5.50;;
7045;SDS011;3564;53.326;10.356;2023-07-29T11:10:15;5.43;;;4.93;;
7045;SDS011;3564;53.326;10.356;2023-07-29T11:14:59;7.37;;;5.67;;
7045;SDS011;3564;53.326;10.356;2023-07-29T11:17:44;5.30;;;4.90;;
7045;SDS011;3564;53.326;10.356;2023-07-29T11:20:10;5.07;;;4.57;;
7045;SDS011;3564;53.326;10.356;2023-07-29T11:22:37;5.30;;;4.80;;
7045;SDS011;3564;53.326;10.356;2023-07-29T11:25:06;5.10;;;4.60;;
7045;SDS011;3564;53.326;10.356;2023-07-29T11:27:33;6.00;;;5.07;;
7045;SDS011;3564;53.326;10.356;2023-07-29T11:29:59;4.67;;;4.27;;
7045;SDS011;3564;53.326;10.356;2023-07-29T11:32:27;4.87;;;4.07;;
7045;SDS011;3564;53.326;10.356;2023-07-29T11:34:52;5.33;;;4.40;;
7045;SDS011;3564;53.326;10.356;2023-07-29T11:37:18;5.17;;;3.80;;
7045;SDS011;3564;53.326;10.356;2023-07-29T11:39:45;4.07;;;3.60;;
7045;SDS011;3564;53.326;10.356;2023-07-29T11:42:11;3.97;;;3.67;;
7045;SDS011;3564;53.326;10.356;2023-07-29T11:44:37;4.63;;;4.20;;
7045;SDS011;3564;53.326;10.356;2023-07-29T11:47:09;3.93;;;3.53;;
7045;SDS011;3564;53.326;10.356;2023-07-29T11:49:37;3.83;;;3.53;;
7045;SDS011;3564;53.326;10.356;2023-07-29T11:52:05;4.00;;;3.60;;
7045;SDS011;3564;53.326;10.356;2023-07-29T11:54:48;4.33;;;3.90;;
7045;SDS011;3564;53.326;10.356;2023-07-29T11:57:14;4.23;;;3.83;;
7045;SDS011;3564;53.326;10.356;2023-07-29T11:59:44;4.03;;;3.67;;
7045;SDS011;3564;53.326;10.356;2023-07-29T12:02:12;4.53;;;4.13;;
7045;SDS011;3564;53.326;10.356;2023-07-29T12:04:40;3.77;;;3.47;;
7045;SDS011;3564;53.326;10.356;2023-07-29T12:07:08;6.90;;;3.97;;
7045;SDS011;3564;53.326;10.356;2023-07-29T12:09:36;4.17;;;3.57;;
7045;SDS011;3564;53.326;10.356;2023-07-29T12:12:03;4.00;;;3.70;;
7045;SDS011;3564;53.326;10.356;2023-07-29T12:14:30;3.90;;;3.57;;
7045;SDS011;3564;53.326;10.356;2023-07-29T12:16:56;3.60;;;3.27;;
7045;SDS011;3564;53.326;10.356;2023-07-29T12:19:30;4.93;;;3.70;;
7045;SDS011;3564;53.326;10.356;2023-07-29T12:21:58;3.87;;;3.30;;
7045;SDS011;3564;53.326;10.356;2023-07-29T12:24:23;4.80;;;3.60;;
7045;SDS011;3564;53.326;10.356;2023-07-29T12:26:52;3.37;;;3.07;;
7045;SDS011;3564;53.326;10.356;2023-07-29T12:29:18;3.60;;;3.30;;
7045;SDS011;3564;53.326;10.356;2023-07-29T12:31:56;2.87;;;2.67;;
7045;SDS011;3564;53.326;10.356;2023-07-29T12:34:24;3.67;;;2.93;;
7045;SDS011;3564;53.326;10.356;2023-07-29T12:36:54;3.93;;;2.60;;
7045;SDS011;3564;53.326;10.356;2023-07-29T12:39:27;3.13;;;2.87;;
7045;SDS011;3564;53.326;10.356;2023-07-29T12:41:55;4.43;;;3.70;;
7045;SDS011;3564;53.326;10.356;2023-07-29T12:44:24;3.80;;;3.33;;
7045;SDS011;3564;53.326;10.356;2023-07-29T12:46:51;3.27;;;2.87;;
7045;SDS011;3564;53.326;10.356;2023-07-29T12:49:17;3.03;;;2.73;;
7045;SDS011;3564;53.326;10.356;2023-07-29T12:51:43;2.93;;;2.73;;
7045;SDS011;3564;53.326;10.356;2023-07-29T12:54:08;3.00;;;2.65;;
7045;SDS011;3564;53.326;10.356;2023-07-29T12:56:34;3.40;;;3.10;;
7045;SDS011;3564;53.326;10.356;2023-07-29T12:59:00;3.50;;;3.20;;
7045;SDS011;3564;53.326;10.356;2023-07-29T13:01:26;3.20;;;2.87;;
7045;SDS011;3564;53.326;10.356;2023-07-29T13:03:58;3.77;;;2.83;;
7045;SDS011;3564;53.326;10.356;2023-07-29T13:06:24;3.47;;;3.10;;
7045;SDS011;3564;53.326;10.356;2023-07-29T13:08:49;3.17;;;2.87;;
7045;SDS011;3564;53.326;10.356;2023-07-29T13:11:15;4.05;;;3.10;;
7045;SDS011;3564;53.326;10.356;2023-07-29T13:13:41;3.47;;;2.77;;
7045;SDS011;3564;53.326;10.356;2023-07-29T13:16:07;3.22;;;2.92;;
7045;SDS011;3564;53.326;10.356;2023-07-29T13:18:35;4.20;;;3.23;;
7045;SDS011;3564;53.326;10.356;2023-07-29T13:21:01;3.63;;;2.80;;
7045;SDS011;3564;53.326;10.356;2023-07-29T13:23:27;2.80;;;2.60;;
7045;SDS011;3564;53.326;10.356;2023-07-29T13:25:57;2.77;;;2.53;;
7045;SDS011;3564;53.326;10.356;2023-07-29T13:28:26;2.73;;;2.50;;
7045;SDS011;3564;53.326;10.356;2023-07-29T13:30:54;2.63;;;2.43;;
7045;SDS011;3564;53.326;10.356;2023-07-29T13:33:20;3.70;;;2.67;;
7045;SDS011;3564;53.326;10.356;2023-07-29T13:35:46;2.80;;;2.60;;
7045;SDS011;3564;53.326;10.356;2023-07-29T13:38:11;3.20;;;2.40;;
7045;SDS011;3564;53.326;10.356;2023-07-29T13:40:40;2.87;;;2.67;;
7045;SDS011;3564;53.326;10.356;2023-07-29T13:43:05;2.95;;;2.47;;
7045;SDS011;3564;53.326;10.356;2023-07-29T13:45:31;3.60;;;2.83;;
7045;SDS011;3564;53.326;10.356;2023-07-29T13:47:58;2.70;;;2.50;;
7045;SDS011;3564;53.326;10.356;2023-07-29T13:50:23;5.00;;;3.80;;
7045;SDS011;3564;53.326;10.356;2023-07-29T13:52:49;3.97;;;3.00;;
7045;SDS011;3564;53.326;10.356;2023-07-29T13:55:15;2.40;;;2.20;;
7045;SDS011;3564;53.326;10.356;2023-07-29T13:57:40;4.43;;;2.57;;
7045;SDS011;3564;53.326;10.356;2023-07-29T14:00:06;2.50;;;2.30;;
7045;SDS011;3564;53.326;10.356;2023-07-29T14:02:33;2.30;;;2.10;;
7045;SDS011;3564;53.326;10.356;2023-07-29T14:05:02;2.40;;;2.20;;
7045;SDS011;3564;53.326;10.356;2023-07-29T14:07:27;4.35;;;2.22;;
7045;SDS011;3564;53.326;10.356;2023-07-29T14:09:53;4.57;;;2.20;;
7045;SDS011;3564;53.326;10.356;2023-07-29T14:12:22;2.40;;;2.20;;
7045;SDS011;3564;53.326;10.356;2023-07-29T14:14:47;4.53;;;3.53;;
7045;SDS011;3564;53.326;10.356;2023-07-29T14:17:13;3.13;;;2.03;;
7045;SDS011;3564;53.326;10.356;2023-07-29T14:19:41;2.90;;;2.40;;
7045;SDS011;3564;53.326;10.356;2023-07-29T14:22:07;2.45;;;2.25;;
7045;SDS011;3564;53.326;10.356;2023-07-29T14:24:35;3.45;;;2.40;;
7045;SDS011;3564;53.326;10.356;2023-07-29T14:27:01;2.90;;;2.30;;
7045;SDS011;3564;53.326;10.356;2023-07-29T14:29:28;3.90;;;2.15;;
7045;SDS011;3564;53.326;10.356;2023-07-29T14:31:56;2.40;;;2.20;;
7045;SDS011;3564;53.326;10.356;2023-07-29T14:34:22;15.70;;;3.55;;
7045;SDS011;3564;53.326;10.356;2023-07-29T14:36:47;2.78;;;2.20;;
7045;SDS011;3564;53.326;10.356;2023-07-29T14:39:16;2.60;;;2.40;;
7045;SDS011;3564;53.326;10.356;2023-07-29T14:41:42;4.65;;;2.47;;
7045;SDS011;3564;53.326;10.356;2023-07-29T14:44:07;5.57;;;3.72;;
7045;SDS011;3564;53.326;10.356;2023-07-29T14:46:33;3.05;;;2.75;;
7045;SDS011;3564;53.326;10.356;2023-07-29T14:48:58;2.53;;;2.33;;
7045;SDS011;3564;53.326;10.356;2023-07-29T14:51:24;5.82;;;3.75;;
7045;SDS011;3564;53.326;10.356;2023-07-29T14:53:52;3.65;;;2.08;;
7045;SDS011;3564;53.326;10.356;2023-07-29T14:56:18;3.45;;;2.08;;
7045;SDS011;3564;53.326;10.356;2023-07-29T14:58:44;2.15;;;1.90;;
7045;SDS011;3564;53.326;10.356;2023-07-29T15:01:10;3.03;;;2.53;;
7045;SDS011;3564;53.326;10.356;2023-07-29T15:03:35;6.03;;;2.20;;
7045;SDS011;3564;53.326;10.356;2023-07-29T15:06:01;4.00;;;1.90;;
7045;SDS011;3564;53.326;10.356;2023-07-29T15:08:28;2.83;;;1.60;;
7045;SDS011;3564;53.326;10.356;2023-07-29T15:10:59;2.22;;;1.80;;
7045;SDS011;3564;53.326;10.356;2023-07-29T15:13:24;3.70;;;2.38;;
7045;SDS011;3564;53.326;10.356;2023-07-29T15:15:50;2.03;;;1.80;;
7045;SDS011;3564;53.326;10.356;2023-07-29T15:18:16;3.38;;;2.50;;
7045;SDS011;3564;53.326;10.356;2023-07-29T15:20:41;3.35;;;2.80;;
7045;SDS011;3564;53.326;10.356;2023-07-29T15:23:10;4.88;;;2.70;;